createdAt,value
2022-08-26T00:00:45.496Z,20.50
2022-08-26T00:03:53.193Z,20.50
2022-08-26T00:07:05.290Z,20.50
2022-08-26T00:13:34.725Z,20.60
2022-08-26T00:19:37.400Z,20.50
2022-08-26T00:22:59.491Z,20.40
2022-08-26T00:25:54.794Z,20.40
2022-08-26T00:28:45.965Z,20.30
2022-08-26T00:31:45.127Z,20.30
2022-08-26T00:34:55.791Z,20.20
2022-08-26T00:37:45.069Z,20.20
2022-08-26T00:40:56.483Z,20.30
2022-08-26T00:43:47.789Z,20.30
2022-08-26T00:47:01.348Z,20.30
2022-08-26T00:49:51.545Z,20.20
2022-08-26T00:52:48.278Z,20.20
2022-08-26T00:55:42.885Z,20.20
2022-08-26T00:58:48.149Z,20.30
2022-08-26T01:01:38.757Z,20.30
2022-08-26T01:04:47.486Z,20.40
2022-08-26T01:07:37.116Z,20.40
2022-08-26T01:10:46.981Z,20.50
2022-08-26T01:13:38.967Z,20.40
2022-08-26T01:16:47.184Z,20.40
2022-08-26T01:20:00.724Z,20.40
2022-08-26T01:23:22.795Z,20.40
2022-08-26T01:26:35.985Z,20.40
2022-08-26T01:29:45.666Z,20.40
2022-08-26T01:32:36.403Z,20.30
2022-08-26T01:35:48.173Z,20.30
2022-08-26T01:38:40.071Z,20.30
2022-08-26T01:41:48.274Z,20.20
2022-08-26T01:45:18.704Z,20.30
2022-08-26T01:48:30.346Z,20.30
2022-08-26T01:58:58.587Z,20.20
2022-08-26T02:01:48.186Z,20.20
2022-08-26T02:08:08.674Z,20.10
2022-08-26T02:11:18.432Z,20.10
2022-08-26T02:14:30.725Z,20.10
2022-08-26T02:17:21.535Z,20.10
2022-08-26T02:20:21.651Z,20.00
2022-08-26T02:23:10.732Z,20.00
2022-08-26T02:26:16.470Z,20.00
2022-08-26T02:29:34.693Z,20.00
2022-08-26T02:32:23.510Z,20.00
2022-08-26T02:35:45.159Z,19.90
2022-08-26T02:41:45.271Z,19.70
2022-08-26T02:44:52.027Z,19.60
2022-08-26T02:47:41.073Z,19.50
2022-08-26T02:54:51.340Z,19.20
2022-08-26T02:57:34.776Z,19.00
2022-08-26T03:00:26.223Z,18.70
2022-08-26T03:45:35.949Z,18.10
2022-08-26T04:08:16.250Z,18.00
2022-08-26T04:11:05.470Z,18.00
2022-08-26T04:13:54.339Z,17.90
2022-08-26T04:16:45.404Z,18.00
2022-08-26T04:19:36.013Z,17.90
2022-08-26T04:22:25.178Z,17.90
2022-08-26T04:25:27.390Z,17.90
2022-08-26T04:28:16.714Z,17.90
2022-08-26T04:31:05.832Z,17.80
2022-08-26T04:42:23.259Z,17.80
2022-08-26T04:45:15.169Z,17.80
2022-08-26T04:54:17.303Z,17.70
2022-08-26T04:57:07.236Z,17.70
2022-08-26T05:11:41.486Z,17.80
2022-08-26T05:14:30.307Z,17.80
2022-08-26T05:17:37.003Z,17.90
2022-08-26T05:21:03.793Z,17.90
2022-08-26T05:42:26.354Z,18.50
2022-08-26T06:19:43.693Z,18.60
2022-08-26T06:25:42.261Z,18.80
2022-08-26T06:29:02.596Z,18.90
2022-08-26T06:35:42.713Z,18.90
2022-08-26T06:45:04.697Z,19.00
2022-08-26T06:51:06.671Z,19.00
2022-08-26T06:57:06.134Z,19.10
2022-08-26T07:00:23.737Z,19.30
2022-08-26T07:07:03.853Z,19.60
2022-08-26T07:13:46.903Z,19.80
2022-08-26T07:17:04.532Z,19.90
2022-08-26T07:23:45.461Z,20.20
2022-08-26T07:27:08.886Z,20.20
2022-08-26T07:30:02.865Z,20.30
2022-08-26T07:32:57.899Z,20.20
2022-08-26T07:35:47.287Z,20.20
2022-08-26T07:38:39.974Z,20.20
2022-08-26T07:44:18.171Z,20.40
2022-08-26T07:47:10.372Z,20.50
2022-08-26T07:50:14.468Z,20.60
2022-08-26T07:53:04.852Z,20.80
2022-08-26T07:55:53.925Z,21.00
2022-08-26T07:58:42.697Z,21.10
2022-08-26T08:01:31.618Z,21.30
2022-08-26T08:04:26.515Z,21.30
2022-08-26T08:07:15.815Z,21.40
2022-08-26T08:10:09.664Z,21.60
2022-08-26T08:13:00.588Z,21.70
2022-08-26T08:15:50.325Z,21.70
2022-08-26T08:18:40.221Z,21.60
2022-08-26T08:21:30.772Z,21.70
2022-08-26T08:24:19.503Z,21.80
2022-08-26T08:27:09.268Z,22.10
2022-08-26T08:29:59.274Z,22.40
2022-08-26T08:32:47.971Z,22.70
2022-08-26T08:35:36.810Z,22.70
2022-08-26T08:38:28.470Z,22.60
2022-08-26T08:41:31.877Z,22.60
2022-08-26T08:47:21.656Z,22.70
2022-08-26T08:50:19.766Z,22.70
2022-08-26T08:53:18.813Z,22.60
2022-08-26T08:56:20.693Z,22.60
2022-08-26T08:59:16.521Z,22.50
2022-08-26T09:02:14.799Z,22.40
2022-08-26T09:05:15.346Z,22.50
2022-08-26T09:08:08.454Z,22.50
2022-08-26T09:11:02.892Z,22.60
2022-08-26T09:13:55.828Z,22.60
2022-08-26T09:16:52.857Z,22.70
2022-08-26T09:19:45.639Z,22.80
2022-08-26T09:22:37.768Z,22.80
2022-08-26T09:25:26.995Z,22.70
2022-08-26T09:28:19.074Z,22.70
2022-08-26T09:31:15.919Z,22.60
2022-08-26T09:34:12.996Z,22.70
2022-08-26T09:37:06.356Z,22.80
2022-08-26T09:39:55.269Z,22.90
2022-08-26T09:42:43.989Z,23.00
2022-08-26T09:45:32.971Z,23.10
2022-08-26T09:48:35.546Z,23.20
2022-08-26T09:51:31.420Z,23.40
2022-08-26T09:54:30.478Z,23.40
2022-08-26T09:57:26.758Z,23.50
2022-08-26T10:00:29.684Z,23.60
2022-08-26T10:03:27.423Z,23.70
2022-08-26T10:06:26.853Z,23.80
2022-08-26T10:09:19.481Z,23.80
2022-08-26T10:12:12.335Z,23.90
2022-08-26T10:15:09.354Z,24.00
2022-08-26T10:18:09.655Z,24.30
2022-08-26T10:21:04.395Z,24.60
2022-08-26T10:24:00.708Z,24.70
2022-08-26T10:27:00.060Z,24.80
2022-08-26T10:29:52.681Z,24.70
2022-08-26T10:32:45.503Z,24.70
2022-08-26T10:35:36.764Z,24.60
2022-08-26T10:38:30.569Z,24.50
2022-08-26T10:41:26.026Z,24.60
2022-08-26T10:44:18.629Z,24.60
2022-08-26T10:47:13.702Z,24.70
2022-08-26T10:50:03.710Z,24.70
2022-08-26T10:53:01.878Z,24.80
2022-08-26T10:55:56.378Z,25.00
2022-08-26T10:59:10.390Z,25.10
2022-08-26T11:02:07.226Z,25.10
2022-08-26T11:04:58.751Z,25.20
2022-08-26T11:07:51.476Z,25.30
2022-08-26T11:10:58.833Z,25.20
2022-08-26T11:14:04.163Z,25.20
2022-08-26T11:16:55.281Z,25.10
2022-08-26T11:20:13.615Z,25.20
2022-08-26T11:23:50.768Z,25.30
2022-08-26T11:26:56.159Z,25.30
2022-08-26T11:30:01.186Z,25.20
2022-08-26T11:32:52.306Z,25.30
2022-08-26T11:35:52.238Z,25.50
2022-08-26T11:38:43.731Z,25.60
2022-08-26T11:41:34.363Z,25.80
2022-08-26T11:44:25.154Z,25.80
2022-08-26T11:47:18.094Z,25.70
2022-08-26T11:50:10.898Z,25.70
2022-08-26T11:53:06.399Z,25.80
2022-08-26T11:55:58.880Z,25.80
2022-08-26T11:58:49.157Z,25.70
2022-08-26T12:01:41.215Z,25.70
2022-08-26T12:04:34.070Z,25.90
2022-08-26T12:07:27.107Z,25.90
2022-08-26T12:10:30.014Z,26.00
2022-08-26T12:13:26.430Z,25.90
2022-08-26T12:16:24.204Z,25.90
2022-08-26T12:19:26.357Z,25.90
2022-08-26T12:22:21.260Z,26.00
2022-08-26T12:25:11.374Z,26.00
2022-08-26T12:28:06.857Z,26.10
2022-08-26T12:31:04.520Z,26.20
2022-08-26T12:33:54.186Z,26.50
2022-08-26T12:36:47.128Z,26.80
2022-08-26T12:39:39.872Z,27.10
2022-08-26T12:42:42.492Z,27.20
2022-08-26T12:45:34.238Z,27.20
2022-08-26T12:48:27.046Z,27.10
2022-08-26T12:51:23.048Z,27.20
2022-08-26T12:54:17.045Z,27.30
2022-08-26T12:57:12.756Z,27.30
2022-08-26T13:00:33.533Z,27.80
2022-08-26T13:03:49.321Z,28.40
2022-08-26T13:06:38.088Z,28.60
2022-08-26T13:09:32.334Z,28.80
2022-08-26T13:12:34.523Z,28.80
2022-08-26T13:15:23.581Z,28.20
2022-08-26T13:18:12.260Z,27.80
2022-08-26T13:21:01.047Z,27.60
2022-08-26T13:23:50.237Z,27.30
2022-08-26T13:26:39.004Z,27.00
2022-08-26T13:29:29.256Z,26.80
2022-08-26T13:32:26.131Z,26.60
2022-08-26T13:35:16.326Z,26.60
2022-08-26T13:38:05.233Z,26.70
2022-08-26T13:40:55.839Z,26.90
2022-08-26T13:43:44.731Z,27.00
2022-08-26T13:46:35.017Z,27.00
2022-08-26T13:49:24.034Z,26.90
2022-08-26T13:52:12.900Z,27.00
2022-08-26T13:55:02.720Z,27.00
2022-08-26T13:57:51.382Z,26.80
2022-08-26T14:00:40.965Z,26.60
2022-08-26T14:03:31.128Z,26.50
2022-08-26T14:06:20.292Z,26.60
2022-08-26T14:09:09.017Z,26.70
2022-08-26T14:12:02.666Z,26.60
2022-08-26T14:14:51.670Z,26.40
2022-08-26T14:17:40.949Z,26.60
2022-08-26T14:20:32.446Z,26.40
2022-08-26T14:23:22.618Z,26.20
2022-08-26T14:26:16.877Z,26.00
2022-08-26T14:29:17.703Z,26.10
2022-08-26T14:32:17.085Z,26.30
2022-08-26T14:35:19.314Z,26.20
2022-08-26T14:38:09.485Z,26.30
2022-08-26T14:40:58.224Z,26.60
2022-08-26T14:43:49.928Z,26.60
2022-08-26T14:46:43.018Z,26.60
2022-08-26T14:49:32.334Z,26.20
2022-08-26T14:52:21.550Z,26.00
2022-08-26T14:55:10.921Z,25.90
2022-08-26T14:58:00.182Z,25.80
2022-08-26T15:00:48.949Z,25.70
2022-08-26T15:03:37.623Z,25.60
2022-08-26T15:06:26.335Z,25.70
2022-08-26T15:09:15.885Z,25.40
2022-08-26T15:12:06.699Z,25.20
2022-08-26T15:14:55.420Z,25.10
2022-08-26T15:17:44.752Z,25.00
2022-08-26T15:20:34.141Z,24.80
2022-08-26T15:23:22.931Z,24.60
2022-08-26T15:26:13.036Z,24.40
2022-08-26T15:29:05.030Z,24.20
2022-08-26T15:31:55.308Z,24.00
2022-08-26T15:34:46.600Z,23.80
2022-08-26T15:37:35.869Z,23.70
2022-08-26T15:40:26.755Z,23.60
2022-08-26T15:43:28.409Z,23.50
2022-08-26T15:46:20.430Z,23.40
2022-08-26T15:49:09.417Z,23.30
2022-08-26T15:52:06.513Z,23.30
2022-08-26T15:54:55.181Z,23.20
2022-08-26T15:57:44.159Z,23.20
2022-08-26T16:00:33.608Z,23.00
2022-08-26T16:03:23.911Z,22.90
2022-08-26T16:06:15.490Z,23.00
2022-08-26T16:09:05.443Z,22.90
2022-08-26T16:11:54.365Z,22.80
2022-08-26T16:14:43.066Z,22.80
2022-08-26T16:17:31.791Z,22.80
2022-08-26T16:20:22.188Z,22.70
2022-08-26T16:23:11.589Z,22.60
2022-08-26T16:26:00.384Z,22.50
2022-08-26T16:28:49.843Z,22.50
2022-08-26T16:31:38.984Z,22.60
2022-08-26T16:34:27.735Z,22.50
2022-08-26T16:37:17.863Z,22.60
2022-08-26T16:40:07.315Z,22.70
2022-08-26T16:42:56.162Z,22.60
2022-08-26T16:45:44.959Z,22.70
2022-08-26T16:48:33.726Z,22.60
2022-08-26T16:51:24.703Z,22.50
2022-08-26T16:54:14.847Z,22.50
2022-08-26T16:57:03.990Z,22.40
2022-08-26T16:59:54.738Z,22.40
2022-08-26T17:02:50.648Z,22.30
2022-08-26T17:05:40.266Z,22.30
2022-08-26T17:08:29.096Z,22.20
2022-08-26T17:11:23.843Z,22.10
2022-08-26T17:14:13.327Z,22.10
2022-08-26T17:17:03.346Z,22.00
2022-08-26T17:20:07.515Z,21.90
2022-08-26T17:22:59.123Z,22.00
2022-08-26T17:25:50.548Z,21.90
2022-08-26T17:28:42.866Z,21.80
2022-08-26T17:31:32.610Z,21.80
2022-08-26T17:34:21.913Z,21.70
2022-08-26T17:37:10.634Z,21.70
2022-08-26T17:39:59.505Z,21.70
2022-08-26T17:42:49.270Z,21.50
2022-08-26T17:45:41.523Z,21.50
2022-08-26T17:48:41.513Z,21.50
2022-08-26T17:51:47.884Z,21.40
2022-08-26T17:58:53.278Z,21.30
2022-08-26T18:01:44.454Z,21.30
2022-08-26T18:04:45.701Z,21.30
2022-08-26T18:07:41.346Z,21.30
2022-08-26T18:10:32.964Z,21.30
2022-08-26T18:13:22.005Z,21.30
2022-08-26T18:16:11.170Z,21.30
2022-08-26T18:19:02.199Z,21.20
2022-08-26T18:21:50.901Z,21.10
2022-08-26T18:24:39.681Z,21.10
2022-08-26T18:27:44.449Z,21.00
2022-08-26T18:30:33.214Z,20.90
2022-08-26T18:33:22.394Z,20.80
2022-08-26T18:36:19.257Z,20.80
2022-08-26T18:39:09.346Z,20.70
2022-08-26T18:41:58.061Z,20.70
2022-08-26T18:44:47.224Z,20.70
2022-08-26T18:47:36.950Z,20.60
2022-08-26T18:50:25.740Z,20.60
2022-08-26T18:53:15.974Z,20.60
2022-08-26T18:56:05.580Z,20.60
2022-08-26T18:58:54.353Z,20.60
2022-08-26T19:01:44.053Z,20.50
2022-08-26T19:04:32.963Z,20.50
2022-08-26T19:07:22.561Z,20.50
2022-08-26T19:10:13.028Z,20.50
2022-08-26T19:13:02.505Z,20.50
2022-08-26T19:15:51.441Z,20.40
2022-08-26T19:18:40.150Z,20.40
2022-08-26T19:21:29.380Z,20.30
2022-08-26T19:24:19.680Z,20.20
2022-08-26T19:27:14.180Z,20.30
2022-08-26T19:30:03.728Z,20.20
2022-08-26T19:32:52.405Z,20.20
2022-08-26T19:35:41.637Z,20.20
2022-08-26T19:38:31.158Z,20.20
2022-08-26T19:41:21.352Z,20.20
2022-08-26T19:44:34.592Z,20.10
2022-08-26T19:47:23.430Z,20.20
2022-08-26T19:50:14.164Z,20.20
2022-08-26T19:53:05.974Z,20.10
2022-08-26T19:55:54.676Z,20.00
2022-08-26T19:58:43.505Z,20.10
2022-08-26T20:01:34.046Z,20.10
2022-08-26T20:04:22.962Z,20.10
2022-08-26T20:07:15.373Z,20.10
2022-08-26T20:10:12.550Z,20.10
2022-08-26T20:13:01.290Z,20.10
2022-08-26T20:15:50.218Z,20.00
2022-08-26T20:18:58.071Z,20.00
2022-08-26T20:21:47.554Z,20.00
2022-08-26T20:27:42.847Z,20.00
2022-08-26T20:30:33.621Z,20.00
2022-08-26T20:33:31.366Z,20.00
2022-08-26T20:36:38.307Z,20.00
2022-08-26T20:42:19.797Z,19.80
2022-08-26T20:48:48.084Z,19.70
2022-08-26T20:51:38.696Z,19.60
2022-08-26T20:54:31.313Z,19.60
2022-08-26T20:57:20.294Z,19.60
2022-08-26T21:00:12.067Z,19.50
2022-08-26T21:03:11.289Z,19.60
2022-08-26T21:06:00.191Z,19.60
2022-08-26T21:08:59.527Z,19.50
2022-08-26T21:11:54.881Z,19.50
2022-08-26T21:14:49.473Z,19.50
2022-08-26T21:17:47.971Z,19.40
2022-08-26T21:20:56.647Z,19.40
2022-08-26T21:24:01.425Z,19.30
2022-08-26T21:27:00.827Z,19.30
2022-08-26T21:29:49.565Z,19.30
2022-08-26T21:32:48.800Z,19.30
2022-08-26T21:35:53.229Z,19.20
2022-08-26T21:38:42.652Z,19.20
2022-08-26T21:42:01.650Z,19.20
2022-08-26T21:44:59.895Z,19.20
2022-08-26T21:47:48.710Z,19.20
2022-08-26T21:51:07.666Z,19.20
2022-08-26T21:54:11.678Z,19.20
2022-08-26T21:57:02.100Z,19.30
2022-08-26T22:03:00.897Z,19.20
2022-08-26T22:06:08.939Z,19.20
2022-08-26T22:08:58.515Z,19.20
2022-08-26T22:11:49.052Z,19.20
2022-08-26T22:14:52.487Z,19.20
2022-08-26T22:17:42.745Z,19.30
2022-08-26T22:20:31.863Z,19.30
2022-08-26T22:23:31.322Z,19.30
2022-08-26T22:26:25.722Z,19.30
2022-08-26T22:29:36.634Z,19.20
2022-08-26T22:32:25.522Z,19.20
2022-08-26T22:38:29.316Z,19.30
2022-08-26T22:41:33.519Z,19.30
2022-08-26T22:44:22.726Z,19.30
2022-08-26T22:47:33.246Z,19.20
2022-08-26T22:50:26.214Z,19.20
2022-08-26T22:56:21.534Z,19.20
2022-08-26T22:59:11.123Z,19.30
2022-08-26T23:02:12.901Z,19.30
2022-08-26T23:05:01.656Z,19.20
2022-08-26T23:08:12.335Z,19.30
2022-08-26T23:11:01.524Z,19.30
2022-08-26T23:13:50.527Z,19.20
2022-08-26T23:19:38.074Z,19.20
2022-08-26T23:22:26.897Z,19.20
2022-08-26T23:25:35.656Z,19.20
2022-08-26T23:28:26.584Z,19.20
2022-08-26T23:31:43.355Z,19.20
2022-08-26T23:34:52.879Z,19.20
2022-08-26T23:37:44.357Z,19.20
2022-08-26T23:40:55.171Z,19.20
2022-08-26T23:43:46.733Z,19.20
2022-08-26T23:46:54.066Z,19.20
2022-08-26T23:49:44.769Z,19.20
2022-08-26T23:52:53.232Z,19.20
2022-08-26T23:55:41.963Z,19.20
